^^
Meteo Knjazevac Station Historical Data
Daily Summary for June 18, 2022 Units:  Both    English   Metric
Daily Weekly Monthly Yearly Custom
  High: Low: Average:
Temperature: 66.7 °F /  19.3 °C 39.4 °F /  4.1 °C 51.6 °F /  10.9 °C
Dew Point: 56.9 °F /  13.8 °C 39.1 °F /  3.9 °C 49.7 °F /  9.8 °C
Humidity: 99% 62.6% 94%
Wind Speed: 17.8mph /  28.6km/h - 4.1mph /  6.6km/h
Wind Gust: 20mph /  32.2km/h - -
Wind- - SSE
Pressure: 29.72 in /  1006.3 hPa 29.57 in /  1001.2 hPa -
Precipitation: 0.54 in /  13.72 mm    
Historical Graphs
 
 
Tabular Data for June 18, 2022
Time Temperature Dew Point Pressure Wind Wind Speed Wind Gust Humidity Rainfall Rate (Hourly) solar Conditions
00:04 43.9 °F /  6.6 °C 43.6 °F /  6.4 °C 29.72in /  1006.3hPa NW 2.6mph /  4.2km/h 4mph /  6.4km/h 99% 0.00in /  0mm 0 W/m2
00:09 43.8 °F /  6.6 °C 43.5 °F /  6.4 °C 29.72in /  1006.3hPa NW 1.6mph /  2.6km/h 3mph /  4.8km/h 99% 0.00in /  0mm 0 W/m2
00:14 43.7 °F /  6.5 °C 43.4 °F /  6.3 °C 29.72in /  1006.3hPa NNW 2.8mph /  4.5km/h 3mph /  4.8km/h 99% 0.00in /  0mm 0 W/m2
00:19 43.5 °F /  6.4 °C 43.3 °F /  6.3 °C 29.72in /  1006.3hPa North 1.7mph /  2.7km/h 3mph /  4.8km/h 99% 0.00in /  0mm 0 W/m2
00:24 43.4 °F /  6.3 °C 43.2 °F /  6.2 °C 29.72in /  1006.3hPa North 2.1mph /  3.4km/h 2mph /  3.2km/h 99% 0.00in /  0mm 0 W/m2
00:29 43.3 °F /  6.3 °C 43 °F /  6.1 °C 29.72in /  1006.3hPa NNW 1.5mph /  2.4km/h 2mph /  3.2km/h 99% 0.00in /  0mm 0 W/m2
00:34 43.1 °F /  6.2 °C 42.8 °F /  6 °C 29.72in /  1006.3hPa WNW 1mph /  1.6km/h 2mph /  3.2km/h 99% 0.00in /  0mm 0 W/m2
00:39 43 °F /  6.1 °C 42.7 °F /  5.9 °C 29.72in /  1006.3hPa NNW 1.4mph /  2.3km/h 2mph /  3.2km/h 99% 0.00in /  0mm 0 W/m2
00:44 43.2 °F /  6.2 °C 42.9 °F /  6.1 °C 29.72in /  1006.3hPa NNW 1.5mph /  2.4km/h 2mph /  3.2km/h 99% 0.00in /  0mm 0 W/m2
00:49 43.3 °F /  6.3 °C 43.1 °F /  6.2 °C 29.71in /  1006hPa NNW 1.6mph /  2.6km/h 2mph /  3.2km/h 99% 0.00in /  0mm 0 W/m2
00:54 43.1 °F /  6.2 °C 42.8 °F /  6 °C 29.71in /  1006hPa NW 1.9mph /  3.1km/h 2mph /  3.2km/h 99% 0.00in /  0mm 0 W/m2
00:59 42.8 °F /  6 °C 42.5 °F /  5.8 °C 29.72in /  1006.3hPa WNW 1.9mph /  3.1km/h 2mph /  3.2km/h 99% 0.00in /  0mm 0 W/m2
01:04 42.6 °F /  5.9 °C 42.3 °F /  5.7 °C 29.72in /  1006.3hPa NW 2.2mph /  3.5km/h 2mph /  3.2km/h 99% 0.00in /  0mm 0 W/m2
01:09 42.4 °F /  5.8 °C 42.1 °F /  5.6 °C 29.72in /  1006.3hPa NNW 1.9mph /  3.1km/h 2mph /  3.2km/h 99% 0.00in /  0mm 0 W/m2
01:14 42.3 °F /  5.7 °C 42 °F /  5.6 °C 29.72in /  1006.3hPa NNW 1.9mph /  3.1km/h 2mph /  3.2km/h 99% 0.00in /  0mm 0 W/m2
01:19 42.1 °F /  5.6 °C 41.8 °F /  5.4 °C 29.72in /  1006.3hPa NNW 1.7mph /  2.7km/h 2mph /  3.2km/h 99% 0.00in /  0mm 0 W/m2
01:24 42.1 °F /  5.6 °C 41.8 °F /  5.4 °C 29.71in /  1006hPa NNW 3.1mph /  5km/h 2.7mph /  4.3km/h 99% 0.00in /  0mm 0 W/m2
01:29 41.9 °F /  5.5 °C 41.6 °F /  5.3 °C 29.72in /  1006.3hPa NNW 2.2mph /  3.5km/h 4mph /  6.4km/h 99% 0.00in /  0mm 0 W/m2
01:34 41.8 °F /  5.4 °C 41.6 °F /  5.3 °C 29.71in /  1006hPa NNW 2.6mph /  4.2km/h 3mph /  4.8km/h 99% 0.00in /  0mm 0 W/m2
01:39 41.7 °F /  5.4 °C 41.5 °F /  5.3 °C 29.71in /  1006hPa NNW 2.3mph /  3.7km/h 3mph /  4.8km/h 99% 0.00in /  0mm 0 W/m2
01:44 41.5 °F /  5.3 °C 41.3 °F /  5.2 °C 29.71in /  1006hPa NW 3.3mph /  5.3km/h 4mph /  6.4km/h 99% 0.00in /  0mm 0 W/m2
01:49 41.4 °F /  5.2 °C 41.1 °F /  5.1 °C 29.71in /  1006hPa NNW 2.1mph /  3.4km/h 4mph /  6.4km/h 99% 0.00in /  0mm 0 W/m2
01:54 41.4 °F /  5.2 °C 41.1 °F /  5.1 °C 29.71in /  1006hPa North 3mph /  4.8km/h 3mph /  4.8km/h 99% 0.00in /  0mm 0 W/m2
01:59 41.4 °F /  5.2 °C 41.1 °F /  5.1 °C 29.71in /  1006hPa North 2.3mph /  3.7km/h 3mph /  4.8km/h 99% 0.00in /  0mm 0 W/m2
02:04 41.2 °F /  5.1 °C 40.9 °F /  4.9 °C 29.71in /  1006hPa North 2mph /  3.2km/h 2mph /  3.2km/h 99% 0.00in /  0mm 0 W/m2
02:09 41.1 °F /  5.1 °C 40.8 °F /  4.9 °C 29.71in /  1006hPa NNW 3.9mph /  6.3km/h 2.7mph /  4.3km/h 99% 0.00in /  0mm 0 W/m2
02:14 40.8 °F /  4.9 °C 40.6 °F /  4.8 °C 29.71in /  1006hPa NW 2.8mph /  4.5km/h 5mph /  8km/h 99% 0.00in /  0mm 0 W/m2
02:19 40.7 °F /  4.8 °C 40.5 °F /  4.7 °C 29.71in /  1006hPa NW 2.5mph /  4km/h 3mph /  4.8km/h 99% 0.00in /  0mm 0 W/m2
02:24 40.5 °F /  4.7 °C 40.2 °F /  4.6 °C 29.71in /  1006hPa NW 2.6mph /  4.2km/h 3mph /  4.8km/h 99% 0.00in /  0mm 0 W/m2
02:29 40.3 °F /  4.6 °C 40 °F /  4.4 °C 29.71in /  1006hPa NNW 2mph /  3.2km/h 3mph /  4.8km/h 99% 0.00in /  0mm 0 W/m2
02:34 40.1 °F /  4.5 °C 39.8 °F /  4.3 °C 29.70in /  1005.6hPa NW 3mph /  4.8km/h 2mph /  3.2km/h 99% 0.00in /  0mm 0 W/m2
02:39 40 °F /  4.4 °C 39.7 °F /  4.3 °C 29.70in /  1005.6hPa NW 3.1mph /  5km/h 4mph /  6.4km/h 99% 0.00in /  0mm 0 W/m2
02:44 39.9 °F /  4.4 °C 39.7 °F /  4.3 °C 29.70in /  1005.6hPa NNW 2.2mph /  3.5km/h 4mph /  6.4km/h 99% 0.00in /  0mm 0 W/m2
02:49 39.7 °F /  4.3 °C 39.5 °F /  4.2 °C 29.70in /  1005.6hPa North 2.2mph /  3.5km/h 3mph /  4.8km/h 99% 0.00in /  0mm 0 W/m2
02:54 39.7 °F /  4.3 °C 39.5 °F /  4.2 °C 29.70in /  1005.6hPa NNW 3mph /  4.8km/h 3mph /  4.8km/h 99% 0.00in /  0mm 0 W/m2
02:59 39.6 °F /  4.2 °C 39.3 °F /  4.1 °C 29.70in /  1005.6hPa NW 2.4mph /  3.9km/h 4mph /  6.4km/h 99% 0.00in /  0mm 0 W/m2
03:04 39.6 °F /  4.2 °C 39.3 °F /  4.1 °C 29.70in /  1005.6hPa NW 2.3mph /  3.7km/h 3mph /  4.8km/h 99% 0.00in /  0mm 0 W/m2
03:09 39.6 °F /  4.2 °C 39.3 °F /  4.1 °C 29.70in /  1005.6hPa NNW 2.5mph /  4km/h 3mph /  4.8km/h 99% 0.00in /  0mm 0 W/m2
03:14 39.6 °F /  4.2 °C 39.3 °F /  4.1 °C 29.70in /  1005.6hPa NNW 3.5mph /  5.6km/h 3.1mph /  5km/h 99% 0.00in /  0mm 0 W/m2
03:19 39.6 °F /  4.2 °C 39.3 °F /  4.1 °C 29.70in /  1005.6hPa NNW 3mph /  4.8km/h 4mph /  6.4km/h 99% 0.00in /  0mm 0 W/m2
03:24 39.6 °F /  4.2 °C 39.3 °F /  4.1 °C 29.70in /  1005.6hPa NNW 2.7mph /  4.3km/h 3mph /  4.8km/h 99% 0.00in /  0mm 0 W/m2
03:29 39.6 °F /  4.2 °C 39.3 °F /  4.1 °C 29.70in /  1005.6hPa NNW 3.8mph /  6.1km/h 5mph /  8km/h 99% 0.00in /  0mm 0 W/m2
03:34 39.6 °F /  4.2 °C 39.3 °F /  4.1 °C 29.70in /  1005.6hPa NNW 2.9mph /  4.7km/h 5mph /  8km/h 99% 0.00in /  0mm 0 W/m2
03:39 39.4 °F /  4.1 °C 39.1 °F /  3.9 °C 29.70in /  1005.6hPa NW 2.2mph /  3.5km/h 3mph /  4.8km/h 99% 0.00in /  0mm 0 W/m2
03:44 39.4 °F /  4.1 °C 39.1 °F /  3.9 °C 29.70in /  1005.6hPa NW 2.8mph /  4.5km/h 4mph /  6.4km/h 99% 0.00in /  0mm 0 W/m2
03:49 39.4 °F /  4.1 °C 39.1 °F /  3.9 °C 29.70in /  1005.6hPa NNW 2.2mph /  3.5km/h 4mph /  6.4km/h 99% 0.00in /  0mm 0 W/m2
03:54 39.4 °F /  4.1 °C 39.1 °F /  3.9 °C 29.70in /  1005.6hPa NNW 3.4mph /  5.5km/h 4mph /  6.4km/h 99% 0.00in /  0mm 0 W/m2
03:59 39.6 °F /  4.2 °C 39.3 °F /  4.1 °C 29.70in /  1005.6hPa NNW 3.3mph /  5.3km/h 4mph /  6.4km/h 99% 0.00in /  0mm 0 W/m2
04:04 39.6 °F /  4.2 °C 39.3 °F /  4.1 °C 29.70in /  1005.6hPa North 3.1mph /  5km/h 4mph /  6.4km/h 99% 0.00in /  0mm 0 W/m2
04:09 39.9 °F /  4.4 °C 39.6 °F /  4.2 °C 29.70in /  1005.6hPa NNE 2.7mph /  4.3km/h 4mph /  6.4km/h 99% 0.00in /  0mm 0 W/m2
04:14 40.2 °F /  4.6 °C 39.9 °F /  4.4 °C 29.70in /  1005.6hPa NNE 2.9mph /  4.7km/h 3mph /  4.8km/h 99% 0.00in /  0mm 0 W/m2
04:19 40.4 °F /  4.7 °C 40.1 °F /  4.5 °C 29.70in /  1005.6hPa NNE 3.6mph /  5.8km/h 4mph /  6.4km/h 99% 0.00in /  0mm 0 W/m2
04:24 40.8 °F /  4.9 °C 40.6 °F /  4.8 °C 29.70in /  1005.6hPa NNE 2.7mph /  4.3km/h 5mph /  8km/h 99% 0.00in /  0mm 0 W/m2
04:29 41.1 °F /  5.1 °C 40.8 °F /  4.9 °C 29.70in /  1005.6hPa NNE 1.9mph /  3.1km/h 3mph /  4.8km/h 99% 0.00in /  0mm 0 W/m2
04:34 41.2 °F /  5.1 °C 40.9 °F /  4.9 °C 29.70in /  1005.6hPa NNE 2.7mph /  4.3km/h 3mph /  4.8km/h 99% 0.00in /  0mm 0 W/m2
04:39 41.3 °F /  5.2 °C 41 °F /  5 °C 29.70in /  1005.6hPa NNE 2.7mph /  4.3km/h 4mph /  6.4km/h 99% 0.00in /  0mm 0 W/m2
04:44 41 °F /  5 °C 40.7 °F /  4.8 °C 29.70in /  1005.6hPa NNE 2.8mph /  4.5km/h 4mph /  6.4km/h 99% 0.00in /  0mm 0 W/m2
04:49 41.1 °F /  5.1 °C 40.8 °F /  4.9 °C 29.70in /  1005.6hPa NNE 2.5mph /  4km/h 4mph /  6.4km/h 99% 0.00in /  0mm 0 W/m2
04:54 41.2 °F /  5.1 °C 40.9 °F /  4.9 °C 29.70in /  1005.6hPa NNE 3.4mph /  5.5km/h 3.1mph /  5km/h 99% 0.00in /  0mm 0 W/m2
04:59 41.2 °F /  5.1 °C 40.9 °F /  4.9 °C 29.70in /  1005.6hPa NE 3.1mph /  5km/h 4mph /  6.4km/h 99% 0.00in /  0mm 0 W/m2
05:04 41.6 °F /  5.3 °C 41.3 °F /  5.2 °C 29.70in /  1005.6hPa NE 3.9mph /  6.3km/h 4mph /  6.4km/h 99% 0.00in /  0mm 0 W/m2
05:09 41.9 °F /  5.5 °C 41.6 °F /  5.3 °C 29.70in /  1005.6hPa NNE 3.1mph /  5km/h 5mph /  8km/h 99% 0.00in /  0mm 0 W/m2
05:14 41.7 °F /  5.4 °C 41.5 °F /  5.3 °C 29.70in /  1005.6hPa North 2.3mph /  3.7km/h 4mph /  6.4km/h 99% 0.00in /  0mm 0 W/m2
05:19 41.9 °F /  5.5 °C 41.6 °F /  5.3 °C 29.70in /  1005.6hPa NNE 2.3mph /  3.7km/h 3mph /  4.8km/h 99% 0.00in /  0mm 0 W/m2
05:24 42.1 °F /  5.6 °C 41.8 °F /  5.4 °C 29.70in /  1005.6hPa NNE 2.7mph /  4.3km/h 3mph /  4.8km/h 99% 0.00in /  0mm 0 W/m2
05:29 42.2 °F /  5.7 °C 41.9 °F /  5.5 °C 29.70in /  1005.6hPa NNW 2.6mph /  4.2km/h 3mph /  4.8km/h 99% 0.00in /  0mm 0 W/m2
05:34 42.4 °F /  5.8 °C 42.1 °F /  5.6 °C 29.70in /  1005.6hPa North 3.3mph /  5.3km/h 5mph /  8km/h 99% 0.00in /  0mm 0 W/m2
05:39 42.3 °F /  5.7 °C 42.1 °F /  5.6 °C 29.70in /  1005.6hPa North 3mph /  4.8km/h 4mph /  6.4km/h 99% 0.00in /  0mm 0 W/m2
05:44 42.5 °F /  5.8 °C 42.3 °F /  5.7 °C 29.70in /  1005.6hPa North 4.1mph /  6.6km/h 5mph /  8km/h 99% 0.00in /  0mm 0 W/m2
05:49 42.3 °F /  5.7 °C 42.1 °F /  5.6 °C 29.70in /  1005.6hPa North 3.8mph /  6.1km/h 5mph /  8km/h 99% 0.00in /  0mm 0 W/m2
05:54 42.1 °F /  5.6 °C 41.8 °F /  5.4 °C 29.70in /  1005.6hPa North 2.7mph /  4.3km/h 5mph /  8km/h 99% 0.00in /  0mm 0 W/m2
05:59 42.2 °F /  5.7 °C 41.9 °F /  5.5 °C 29.70in /  1005.6hPa NNE 3.4mph /  5.5km/h 3mph /  4.8km/h 99% 0.00in /  0mm 0 W/m2
06:04 42 °F /  5.6 °C 41.7 °F /  5.4 °C 29.70in /  1005.6hPa North 3.7mph /  6km/h 5mph /  8km/h 99% 0.00in /  0mm 0 W/m2
06:09 42.1 °F /  5.6 °C 41.8 °F /  5.4 °C 29.70in /  1005.6hPa North 3.7mph /  6km/h 5mph /  8km/h 99% 0.00in /  0mm 0 W/m2
06:14 42.4 °F /  5.8 °C 42.2 °F /  5.7 °C 29.70in /  1005.6hPa North 4.5mph /  7.2km/h 5mph /  8km/h 99% 0.00in /  0mm 0 W/m2
06:19 42.4 °F /  5.8 °C 42.1 °F /  5.6 °C 29.70in /  1005.6hPa North 2.3mph /  3.7km/h 5mph /  8km/h 99% 0.00in /  0mm 1 W/m2
06:24 42.3 °F /  5.7 °C 42.1 °F /  5.6 °C 29.69in /  1005.3hPa North 2.1mph /  3.4km/h 3mph /  4.8km/h 99% 0.00in /  0mm 3 W/m2
06:29 42.4 °F /  5.8 °C 42.1 °F /  5.6 °C 29.70in /  1005.6hPa NNE 2mph /  3.2km/h 2mph /  3.2km/h 99% 0.00in /  0mm 6 W/m2
06:34 42.4 °F /  5.8 °C 42.2 °F /  5.7 °C 29.70in /  1005.6hPa NNE 2.6mph /  4.2km/h 2mph /  3.2km/h 99% 0.00in /  0mm 9 W/m2
06:39 42.6 °F /  5.9 °C 42.4 °F /  5.8 °C 29.69in /  1005.3hPa North 3mph /  4.8km/h 3mph /  4.8km/h 99% 0.00in /  0mm 12 W/m2
06:44 42.9 °F /  6.1 °C 42.6 °F /  5.9 °C 29.69in /  1005.3hPa North 3mph /  4.8km/h 4mph /  6.4km/h 99% 0.00in /  0mm 15 W/m2
06:49 43.2 °F /  6.2 °C 42.9 °F /  6.1 °C 29.69in /  1005.3hPa NNE 3.2mph /  5.1km/h 4mph /  6.4km/h 99% 0.00in /  0mm 20 W/m2
06:54 43.3 °F /  6.3 °C 43 °F /  6.1 °C 29.69in /  1005.3hPa NNE 3.2mph /  5.1km/h 3mph /  4.8km/h 99% 0.00in /  0mm 31 W/m2
06:59 43.4 °F /  6.3 °C 43.2 °F /  6.2 °C 29.69in /  1005.3hPa North 2.6mph /  4.2km/h 3mph /  4.8km/h 99% 0.00in /  0mm 39 W/m2
07:04 43.8 °F /  6.6 °C 43.5 °F /  6.4 °C 29.69in /  1005.3hPa North 2.3mph /  3.7km/h 3mph /  4.8km/h 99% 0.00in /  0mm 46 W/m2
07:09 44.1 °F /  6.7 °C 43.8 °F /  6.6 °C 29.69in /  1005.3hPa North 2.5mph /  4km/h 5mph /  8km/h 99% 0.00in /  0mm 59 W/m2
07:14 44.3 °F /  6.8 °C 44.1 °F /  6.7 °C 29.69in /  1005.3hPa NNE 2.8mph /  4.5km/h 3mph /  4.8km/h 99% 0.00in /  0mm 69 W/m2
07:19 44.6 °F /  7 °C 44.3 °F /  6.8 °C 29.69in /  1005.3hPa NE 2.2mph /  3.5km/h 4mph /  6.4km/h 99% 0.00in /  0mm 82 W/m2
07:24 45 °F /  7.2 °C 44.7 °F /  7.1 °C 29.69in /  1005.3hPa NNE 2.1mph /  3.4km/h 2mph /  3.2km/h 99% 0.00in /  0mm 94 W/m2
07:29 46.1 °F /  7.8 °C 45.8 °F /  7.7 °C 29.69in /  1005.3hPa North 2.1mph /  3.4km/h 3mph /  4.8km/h 99% 0.00in /  0mm 109 W/m2
07:34 47.5 °F /  8.6 °C 47.3 °F /  8.5 °C 29.68in /  1005hPa NNW 1.2mph /  1.9km/h 3mph /  4.8km/h 99% 0.00in /  0mm 132 W/m2
07:39 49 °F /  9.4 °C 48.8 °F /  9.3 °C 29.69in /  1005.3hPa NNE 3.8mph /  6.1km/h 4.2mph /  6.8km/h 99% 0.00in /  0mm 169 W/m2
07:44 50.1 °F /  10.1 °C 49.8 °F /  9.9 °C 29.69in /  1005.3hPa ENE 4.7mph /  7.6km/h 7mph /  11.3km/h 99% 0.00in /  0mm 177 W/m2
07:49 51.1 °F /  10.6 °C 50.4 °F /  10.2 °C 29.68in /  1005hPa ENE 5mph /  8km/h 7mph /  11.3km/h 97.7% 0.00in /  0mm 177 W/m2
07:54 51.5 °F /  10.8 °C 50.1 °F /  10.1 °C 29.69in /  1005.3hPa NE 4.8mph /  7.7km/h 6mph /  9.7km/h 94.8% 0.00in /  0mm 169 W/m2
07:59 51.2 °F /  10.7 °C 49.2 °F /  9.6 °C 29.69in /  1005.3hPa ENE 2mph /  3.2km/h 6mph /  9.7km/h 93.3% 0.00in /  0mm 229 W/m2
08:04 51.1 °F /  10.6 °C 49.3 °F /  9.6 °C 29.69in /  1005.3hPa NE 2mph /  3.2km/h 2mph /  3.2km/h 93.8% 0.00in /  0mm 229 W/m2
08:09 50.9 °F /  10.5 °C 49.2 °F /  9.6 °C 29.69in /  1005.3hPa WNW 2.8mph /  4.5km/h 2mph /  3.2km/h 94% 0.00in /  0mm 135 W/m2
08:14 50.7 °F /  10.4 °C 49.2 °F /  9.6 °C 29.68in /  1005hPa WNW 3.8mph /  6.1km/h 4mph /  6.4km/h 94.7% 0.00in /  0mm 148 W/m2
08:19 50.9 °F /  10.5 °C 49.5 °F /  9.7 °C 29.69in /  1005.3hPa NNE 2.8mph /  4.5km/h 5mph /  8km/h 95% 0.00in /  0mm 136 W/m2
08:24 51.2 °F /  10.7 °C 49.8 °F /  9.9 °C 29.68in /  1005hPa NNE 3.5mph /  5.6km/h 5mph /  8km/h 95% 0.00in /  0mm 178 W/m2
08:29 51.4 °F /  10.8 °C 50 °F /  10 °C 29.68in /  1005hPa NNE 3.1mph /  5km/h 5mph /  8km/h 95% 0.00in /  0mm 178 W/m2
08:34 51.5 °F /  10.8 °C 50.1 °F /  10.1 °C 29.68in /  1005hPa NNE 3.4mph /  5.5km/h 4mph /  6.4km/h 95% 0.00in /  0mm 135 W/m2
08:39 51.7 °F /  10.9 °C 50.3 °F /  10.2 °C 29.68in /  1005hPa NNE 3.6mph /  5.8km/h 4mph /  6.4km/h 95% 0.00in /  0mm 135 W/m2
08:44 52.1 °F /  11.2 °C 50.5 °F /  10.3 °C 29.68in /  1005hPa NNE 4.2mph /  6.8km/h 4mph /  6.4km/h 94.2% 0.00in /  0mm 273 W/m2
08:49 52.9 °F /  11.6 °C 51.1 °F /  10.6 °C 29.68in /  1005hPa NE 2.8mph /  4.5km/h 5mph /  8km/h 93.9% 0.00in /  0mm 273 W/m2
08:54 53.8 °F /  12.1 °C 51.7 °F /  10.9 °C 29.67in /  1004.6hPa NE 3.1mph /  5km/h 3mph /  4.8km/h 92.9% 0.00in /  0mm 270 W/m2
08:59 54.2 °F /  12.3 °C 51.8 °F /  11 °C 29.67in /  1004.6hPa NNE 2.1mph /  3.4km/h 3mph /  4.8km/h 91.5% 0.00in /  0mm 233 W/m2
09:04 54.3 °F /  12.4 °C 52.3 °F /  11.3 °C 29.67in /  1004.6hPa ESE 1.8mph /  2.9km/h 2mph /  3.2km/h 93% 0.00in /  0mm 162 W/m2
09:09 54.3 °F /  12.4 °C 52.3 °F /  11.3 °C 29.67in /  1004.6hPa SW 1.7mph /  2.7km/h 2mph /  3.2km/h 93% 0.00in /  0mm 134 W/m2
09:14 54.1 °F /  12.3 °C 52.4 °F /  11.3 °C 29.66in /  1004.3hPa NNW 2mph /  3.2km/h 2mph /  3.2km/h 93.5% 0.00in /  0mm 115 W/m2
09:19 54.1 °F /  12.3 °C 52.4 °F /  11.3 °C 29.66in /  1004.3hPa WNW 2.1mph /  3.4km/h 2mph /  3.2km/h 94% 0.00in /  0mm 122 W/m2
09:24 54 °F /  12.2 °C 52.3 °F /  11.3 °C 29.66in /  1004.3hPa West 1.5mph /  2.4km/h 2mph /  3.2km/h 94% 0.00in /  0mm 146 W/m2
09:29 54.1 °F /  12.3 °C 52.5 °F /  11.4 °C 29.66in /  1004.3hPa West 2mph /  3.2km/h 2mph /  3.2km/h 94.4% 0.00in /  0mm 141 W/m2
09:34 54.2 °F /  12.3 °C 52.4 °F /  11.3 °C 29.66in /  1004.3hPa West 1.7mph /  2.7km/h 2mph /  3.2km/h 93.6% 0.00in /  0mm 181 W/m2
09:39 54.6 °F /  12.6 °C 52.4 °F /  11.3 °C 29.66in /  1004.3hPa West 2.2mph /  3.5km/h 2mph /  3.2km/h 92.3% 0.00in /  0mm 226 W/m2
09:44 55.4 °F /  13 °C 52.5 °F /  11.4 °C 29.66in /  1004.3hPa South 3.7mph /  6km/h 4mph /  6.4km/h 90.2% 0.00in /  0mm 213 W/m2
09:49 55.9 °F /  13.3 °C 52.8 °F /  11.6 °C 29.66in /  1004.3hPa SE 3.6mph /  5.8km/h 5mph /  8km/h 89.2% 0.00in /  0mm 130 W/m2
09:54 56.2 °F /  13.4 °C 53 °F /  11.7 °C 29.65in /  1003.9hPa SE 4.4mph /  7.1km/h 5mph /  8km/h 88.9% 0.00in /  0mm 171 W/m2
09:59 56.7 °F /  13.7 °C 53.3 °F /  11.8 °C 29.65in /  1003.9hPa ESE 4.9mph /  7.9km/h 6mph /  9.7km/h 88.5% 0.00in /  0mm 400 W/m2
10:04 57.8 °F /  14.3 °C 54.2 °F /  12.3 °C 29.65in /  1003.9hPa ENE 5.6mph /  9km/h 6mph /  9.7km/h 87.5% 0.00in /  0mm 569 W/m2
10:09 59.4 °F /  15.2 °C 55 °F /  12.8 °C 29.65in /  1003.9hPa NE 4.1mph /  6.6km/h 7mph /  11.3km/h 85.4% 0.00in /  0mm 569 W/m2
10:14 60.6 °F /  15.9 °C 55.6 °F /  13.1 °C 29.65in /  1003.9hPa NNE 3.8mph /  6.1km/h 5mph /  8km/h 83.5% 0.00in /  0mm 463 W/m2
10:19 61.3 °F /  16.3 °C 54.8 °F /  12.7 °C 29.65in /  1003.9hPa NNW 4.6mph /  7.4km/h 5mph /  8km/h 79.2% 0.00in /  0mm 556 W/m2
10:24 61.6 °F /  16.4 °C 55 °F /  12.8 °C 29.65in /  1003.9hPa NE 3mph /  4.8km/h 6mph /  9.7km/h 78.9% 0.00in /  0mm 601 W/m2
10:29 62.7 °F /  17.1 °C 55.8 °F /  13.2 °C 29.64in /  1003.6hPa NE 3.3mph /  5.3km/h 4mph /  6.4km/h 78.1% 0.00in /  0mm 574 W/m2
10:34 63.5 °F /  17.5 °C 56.2 °F /  13.4 °C 29.64in /  1003.6hPa SE 2.9mph /  4.7km/h 4mph /  6.4km/h 77% 0.00in /  0mm 527 W/m2
10:39 64.1 °F /  17.8 °C 56.2 °F /  13.4 °C 29.64in /  1003.6hPa SSW 2.8mph /  4.5km/h 4mph /  6.4km/h 75.4% 0.00in /  0mm 511 W/m2
10:44 64.7 °F /  18.2 °C 56.2 °F /  13.4 °C 29.64in /  1003.6hPa WSW 2.8mph /  4.5km/h 3mph /  4.8km/h 74.1% 0.00in /  0mm 529 W/m2
10:49 65.1 °F /  18.4 °C 56.5 °F /  13.6 °C 29.63in /  1003.3hPa WSW 3.5mph /  5.6km/h 3.6mph /  5.8km/h 73.6% 0.00in /  0mm 528 W/m2
10:54 65.5 °F /  18.6 °C 56.7 °F /  13.7 °C 29.63in /  1003.3hPa WSW 5.1mph /  8.2km/h 5mph /  8km/h 73.1% 0.00in /  0mm 605 W/m2
10:59 66.2 °F /  19 °C 56.9 °F /  13.8 °C 29.63in /  1003.3hPa WSW 4.2mph /  6.8km/h 6mph /  9.7km/h 72.1% 0.00in /  0mm 636 W/m2
11:04 66.7 °F /  19.3 °C 56.5 °F /  13.6 °C 29.62in /  1002.9hPa WSW 3.7mph /  6km/h 5mph /  8km/h 69.7% 0.00in /  0mm 632 W/m2
11:09 66.6 °F /  19.2 °C 55.9 °F /  13.3 °C 29.62in /  1002.9hPa SSW 8mph /  12.9km/h 7mph /  11.3km/h 68.4% 0.00in /  0mm 230 W/m2
11:14 65.8 °F /  18.8 °C 54.7 °F /  12.6 °C 29.62in /  1002.9hPa South 6.8mph /  10.9km/h 9mph /  14.5km/h 67.6% 0.00in /  0mm 290 W/m2
11:19 65.3 °F /  18.5 °C 54.4 °F /  12.4 °C 29.61in /  1002.6hPa South 5.6mph /  9km/h 8mph /  12.9km/h 67.8% 0.00in /  0mm 238 W/m2
11:24 65.3 °F /  18.5 °C 53.7 °F /  12.1 °C 29.61in /  1002.6hPa South 9mph /  14.5km/h 8mph /  12.9km/h 66.3% 0.00in /  0mm 622 W/m2
11:29 65.6 °F /  18.7 °C 53.8 °F /  12.1 °C 29.61in /  1002.6hPa South 11mph /  17.7km/h 12mph /  19.3km/h 65.8% 0.00in /  0mm 520 W/m2
11:34 66.3 °F /  19.1 °C 54.2 °F /  12.3 °C 29.61in /  1002.6hPa South 8.8mph /  14.2km/h 12mph /  19.3km/h 65.2% 0.00in /  0mm 521 W/m2
11:39 66.6 °F /  19.2 °C 54.3 °F /  12.4 °C 29.60in /  1002.3hPa SSW 6.1mph /  9.8km/h 9mph /  14.5km/h 64.8% 0.00in /  0mm 400 W/m2
11:44 66.7 °F /  19.3 °C 54.4 °F /  12.4 °C 29.60in /  1002.3hPa SSW 7.7mph /  12.4km/h 9mph /  14.5km/h 64.6% 0.00in /  0mm 403 W/m2
11:49 66.6 °F /  19.2 °C 54.2 °F /  12.3 °C 29.60in /  1002.3hPa SSW 8.7mph /  14km/h 12mph /  19.3km/h 64.3% 0.00in /  0mm 285 W/m2
11:54 66.4 °F /  19.1 °C 54.1 °F /  12.3 °C 29.60in /  1002.3hPa SW 6.9mph /  11.1km/h 11mph /  17.7km/h 64.7% 0.00in /  0mm 302 W/m2
11:59 66.2 °F /  19 °C 53.7 °F /  12.1 °C 29.60in /  1002.3hPa SW 11.9mph /  19.2km/h 9.8mph /  15.8km/h 63.9% 0.00in /  0mm 268 W/m2
12:04 66.1 °F /  18.9 °C 53.2 °F /  11.8 °C 29.59in /  1001.9hPa SW 14.7mph /  23.7km/h 14mph /  22.5km/h 63.1% 0.00in /  0mm 189 W/m2
12:09 65.7 °F /  18.7 °C 52.6 °F /  11.4 °C 29.59in /  1001.9hPa SW 17.8mph /  28.6km/h 19mph /  30.6km/h 62.6% 0.00in /  0mm 72 W/m2
12:14 65.3 °F /  18.5 °C 52.5 °F /  11.4 °C 29.59in /  1001.9hPa SW 14.9mph /  24km/h 20mph /  32.2km/h 63.4% 0.00in /  0mm 65 W/m2
12:19 64.9 °F /  18.3 °C 52.4 °F /  11.3 °C 29.59in /  1001.9hPa SW 15.8mph /  25.4km/h 16mph /  25.7km/h 64.1% 0.01in /  0.25mm 69 W/m2
12:24 64.6 °F /  18.1 °C 52.4 °F /  11.3 °C 29.59in /  1001.9hPa SW 15.6mph /  25.1km/h 17mph /  27.4km/h 64.9% 0.01in /  0.25mm 102 W/m2
12:29 64.2 °F /  17.9 °C 53 °F /  11.7 °C 29.58in /  1001.6hPa SW 13.7mph /  22km/h 17mph /  27.4km/h 66.9% 0.01in /  0.25mm 104 W/m2
12:34 64 °F /  17.8 °C 53 °F /  11.7 °C 29.58in /  1001.6hPa SW 10.9mph /  17.5km/h 15mph /  24.1km/h 67.3% 0.01in /  0.25mm 98 W/m2
12:39 63.9 °F /  17.7 °C 53.1 °F /  11.7 °C 29.58in /  1001.6hPa SW 9.1mph /  14.6km/h 12mph /  19.3km/h 67.8% 0.01in /  0.25mm 98 W/m2
12:44 63.9 °F /  17.7 °C 53.1 °F /  11.7 °C 29.58in /  1001.6hPa SSW 10.4mph /  16.7km/h 10mph /  16.1km/h 67.9% 0.01in /  0.25mm 90 W/m2
12:49 63.7 °F /  17.6 °C 52.9 °F /  11.6 °C 29.58in /  1001.6hPa SW 10.8mph /  17.4km/h 13mph /  20.9km/h 68% 0.01in /  0.25mm 75 W/m2
12:54 63.5 °F /  17.5 °C 53.3 °F /  11.8 °C 29.59in /  1001.9hPa SW 11.2mph /  18km/h 13mph /  20.9km/h 69.4% 0.01in /  0.25mm 74 W/m2
12:59 63 °F /  17.2 °C 53.2 °F /  11.8 °C 29.59in /  1001.9hPa SW 14mph /  22.5km/h 14mph /  22.5km/h 70.4% 0.01in /  0.25mm 62 W/m2
13:04 62.4 °F /  16.9 °C 53.6 °F /  12 °C 29.59in /  1001.9hPa SW 13.1mph /  21.1km/h 15mph /  24.1km/h 73% 0.01in /  0.25mm 56 W/m2
13:09 61.7 °F /  16.5 °C 54 °F /  12.2 °C 29.59in /  1001.9hPa SW 12.4mph /  20km/h 14mph /  22.5km/h 75.8% 0.01in /  0.25mm 64 W/m2
13:14 61 °F /  16.1 °C 54.3 °F /  12.4 °C 29.59in /  1001.9hPa SW 12mph /  19.3km/h 14mph /  22.5km/h 78.6% 0.02in /  0.51mm 74 W/m2
13:19 60.4 °F /  15.8 °C 54.6 °F /  12.6 °C 29.60in /  1002.3hPa SW 8.8mph /  14.2km/h 14mph /  22.5km/h 81.1% 0.02in /  0.51mm 72 W/m2
13:24 59.9 °F /  15.5 °C 54.9 °F /  12.7 °C 29.60in /  1002.3hPa SW 8mph /  12.9km/h 9mph /  14.5km/h 83.6% 0.01in /  0.25mm 48 W/m2
13:29 59.5 °F /  15.3 °C 54.6 °F /  12.6 °C 29.60in /  1002.3hPa SW 8.8mph /  14.2km/h 8mph /  12.9km/h 84% 0.01in /  0.25mm 50 W/m2
13:34 59.2 °F /  15.1 °C 54.4 °F /  12.4 °C 29.60in /  1002.3hPa SW 8.3mph /  13.4km/h 12mph /  19.3km/h 84.1% 0.01in /  0.25mm 50 W/m2
13:39 59.1 °F /  15.1 °C 54.6 °F /  12.6 °C 29.60in /  1002.3hPa SW 6.9mph /  11.1km/h 9mph /  14.5km/h 84.9% 0.01in /  0.25mm 46 W/m2
13:44 58.9 °F /  14.9 °C 54.5 °F /  12.5 °C 29.60in /  1002.3hPa SW 4.9mph /  7.9km/h 8mph /  12.9km/h 85.5% 0.01in /  0.25mm 61 W/m2
13:49 58.6 °F /  14.8 °C 54.8 °F /  12.7 °C 29.60in /  1002.3hPa SW 3.7mph /  6km/h 6mph /  9.7km/h 86.9% 0.01in /  0.25mm 52 W/m2
13:54 58.5 °F /  14.7 °C 55.1 °F /  12.8 °C 29.59in /  1001.9hPa SSW 2.2mph /  3.5km/h 4mph /  6.4km/h 88.6% 0.02in /  0.51mm 22 W/m2
13:59 58.3 °F /  14.6 °C 55.1 °F /  12.8 °C 29.59in /  1001.9hPa SW 1.6mph /  2.6km/h 2mph /  3.2km/h 89% 0.02in /  0.51mm 25 W/m2
14:04 57.9 °F /  14.4 °C 55.1 °F /  12.8 °C 29.59in /  1001.9hPa WNW 0.8mph /  1.3km/h 2mph /  3.2km/h 90.2% 0.02in /  0.51mm 30 W/m2
14:09 57.6 °F /  14.2 °C 55 °F /  12.8 °C 29.58in /  1001.6hPa WSW 1.8mph /  2.9km/h 1.3mph /  2.1km/h 91% 0.02in /  0.51mm 36 W/m2
14:14 57.6 °F /  14.2 °C 55.2 °F /  12.9 °C 29.58in /  1001.6hPa West 1.9mph /  3.1km/h 2mph /  3.2km/h 91.8% 0.02in /  0.51mm 34 W/m2
14:19 57.4 °F /  14.1 °C 55.4 °F /  13 °C 29.58in /  1001.6hPa NW 2.2mph /  3.5km/h 2mph /  3.2km/h 93% 0.02in /  0.51mm 31 W/m2
14:24 57.3 °F /  14.1 °C 55.5 °F /  13.1 °C 29.58in /  1001.6hPa NW 2.1mph /  3.4km/h 3mph /  4.8km/h 93.8% 0.02in /  0.51mm 19 W/m2
14:29 57 °F /  13.9 °C 55.3 °F /  12.9 °C 29.58in /  1001.6hPa WNW 2.7mph /  4.3km/h 3mph /  4.8km/h 94.1% 0.02in /  0.51mm 21 W/m2
14:34 56.8 °F /  13.8 °C 55.4 °F /  13 °C 29.58in /  1001.6hPa WNW 3.3mph /  5.3km/h 3mph /  4.8km/h 95% 0.02in /  0.51mm 31 W/m2
14:39 56.5 °F /  13.6 °C 55.4 °F /  13 °C 29.57in /  1001.2hPa WSW 3.2mph /  5.1km/h 4mph /  6.4km/h 95.9% 0.02in /  0.51mm 30 W/m2
14:44 56.3 °F /  13.5 °C 55.3 °F /  12.9 °C 29.57in /  1001.2hPa SSW 3mph /  4.8km/h 4mph /  6.4km/h 96% 0.02in /  0.51mm 31 W/m2
14:49 56.3 °F /  13.5 °C 55.2 °F /  12.9 °C 29.57in /  1001.2hPa SSW 1.2mph /  1.9km/h 3mph /  4.8km/h 96% 0.02in /  0.51mm 32 W/m2
14:54 56.3 °F /  13.5 °C 55.6 °F /  13.1 °C 29.57in /  1001.2hPa WSW 1.9mph /  3.1km/h 2mph /  3.2km/h 97.7% 0.02in /  0.51mm 28 W/m2
14:59 56.1 °F /  13.4 °C 55.6 °F /  13.1 °C 29.57in /  1001.2hPa WNW 2.2mph /  3.5km/h 2mph /  3.2km/h 98% 0.01in /  0.25mm 19 W/m2
15:04 56.1 °F /  13.4 °C 55.6 °F /  13.1 °C 29.57in /  1001.2hPa NW 2.6mph /  4.2km/h 2.5mph /  4km/h 98% 0.01in /  0.25mm 15 W/m2
15:09 55.9 °F /  13.3 °C 55.5 °F /  13.1 °C 29.58in /  1001.6hPa WNW 3.5mph /  5.6km/h 4mph /  6.4km/h 98.3% 0.01in /  0.25mm 13 W/m2
15:14 55.9 °F /  13.3 °C 55.7 °F /  13.2 °C 29.58in /  1001.6hPa West 3mph /  4.8km/h 4mph /  6.4km/h 99% 0.01in /  0.25mm 9 W/m2
15:19 55.8 °F /  13.2 °C 55.5 °F /  13.1 °C 29.58in /  1001.6hPa WSW 2.4mph /  3.9km/h 4mph /  6.4km/h 99% 0.01in /  0.25mm 6 W/m2
15:24 55.6 °F /  13.1 °C 55.3 °F /  12.9 °C 29.58in /  1001.6hPa WSW 1.9mph /  3.1km/h 2mph /  3.2km/h 99% 0.02in /  0.51mm 6 W/m2
15:29 55.6 °F /  13.1 °C 55.3 °F /  12.9 °C 29.58in /  1001.6hPa West 1.5mph /  2.4km/h 2mph /  3.2km/h 99% 0.03in /  0.76mm 6 W/m2
15:34 55.3 °F /  12.9 °C 55 °F /  12.8 °C 29.58in /  1001.6hPa West 1.3mph /  2.1km/h 2mph /  3.2km/h 99% 0.03in /  0.76mm 3 W/m2
15:39 55.2 °F /  12.9 °C 54.9 °F /  12.7 °C 29.58in /  1001.6hPa North 1.4mph /  2.3km/h 2mph /  3.2km/h 99% 0.04in /  1.02mm 1 W/m2
15:44 55 °F /  12.8 °C 54.8 °F /  12.7 °C 29.58in /  1001.6hPa NNE 2.9mph /  4.7km/h 3.1mph /  5km/h 99% 0.04in /  1.02mm 1 W/m2
15:49 55 °F /  12.8 °C 54.8 °F /  12.7 °C 29.59in /  1001.9hPa NNE 6.5mph /  10.5km/h 5mph /  8km/h 99% 0.04in /  1.02mm 1 W/m2
15:54 54.9 °F /  12.7 °C 54.6 °F /  12.6 °C 29.59in /  1001.9hPa NNE 6.5mph /  10.5km/h 8mph /  12.9km/h 99% 0.05in /  1.27mm 0 W/m2
15:59 54.8 °F /  12.7 °C 54.5 °F /  12.5 °C 29.59in /  1001.9hPa NNE 8.6mph /  13.8km/h 7.2mph /  11.6km/h 99% 0.05in /  1.27mm 0 W/m2
16:04 54.7 °F /  12.6 °C 54.4 °F /  12.4 °C 29.58in /  1001.6hPa NNE 10.5mph /  16.9km/h 10mph /  16.1km/h 99% 0.06in /  1.52mm 0 W/m2
16:09 54.7 °F /  12.6 °C 54.4 °F /  12.4 °C 29.58in /  1001.6hPa ENE 8.3mph /  13.4km/h 12mph /  19.3km/h 99% 0.06in /  1.52mm 0 W/m2
16:14 55 °F /  12.8 °C 54.8 °F /  12.7 °C 29.58in /  1001.6hPa SE 9.9mph /  15.9km/h 12mph /  19.3km/h 99% 0.07in /  1.78mm 0 W/m2
16:19 55.2 °F /  12.9 °C 54.9 °F /  12.7 °C 29.58in /  1001.6hPa SSE 6.4mph /  10.3km/h 10mph /  16.1km/h 99% 0.09in /  2.29mm 0 W/m2
16:24 55 °F /  12.8 °C 54.7 °F /  12.6 °C 29.59in /  1001.9hPa SSW 4.9mph /  7.9km/h 7mph /  11.3km/h 99% 0.09in /  2.29mm 0 W/m2
16:29 54.9 °F /  12.7 °C 54.6 °F /  12.6 °C 29.59in /  1001.9hPa SW 6.6mph /  10.6km/h 6.7mph /  10.8km/h 99% 0.10in /  2.54mm 0 W/m2
16:34 55 °F /  12.8 °C 54.8 °F /  12.7 °C 29.58in /  1001.6hPa SSW 8.1mph /  13km/h 10mph /  16.1km/h 99% 0.12in /  3.05mm 0 W/m2
16:39 55 °F /  12.8 °C 54.8 °F /  12.7 °C 29.58in /  1001.6hPa South 5.5mph /  8.9km/h 10mph /  16.1km/h 99% 0.14in /  3.56mm 0 W/m2
16:44 55 °F /  12.8 °C 54.8 °F /  12.7 °C 29.59in /  1001.9hPa SSE 5.3mph /  8.5km/h 7mph /  11.3km/h 99% 0.15in /  3.81mm 0 W/m2
16:49 55 °F /  12.8 °C 54.7 °F /  12.6 °C 29.59in /  1001.9hPa South 5mph /  8km/h 7mph /  11.3km/h 99% 0.16in /  4.06mm 0 W/m2
16:54 54.9 °F /  12.7 °C 54.6 °F /  12.6 °C 29.58in /  1001.6hPa SSW 5.4mph /  8.7km/h 7mph /  11.3km/h 99% 0.19in /  4.83mm 0 W/m2
16:59 54.9 °F /  12.7 °C 54.6 °F /  12.6 °C 29.58in /  1001.6hPa South 4.6mph /  7.4km/h 7mph /  11.3km/h 99% 0.21in /  5.33mm 0 W/m2
17:04 54.9 °F /  12.7 °C 54.6 °F /  12.6 °C 29.58in /  1001.6hPa SSE 6.2mph /  10km/h 6mph /  9.7km/h 99% 0.23in /  5.84mm 0 W/m2
17:09 54.9 °F /  12.7 °C 54.6 °F /  12.6 °C 29.58in /  1001.6hPa East 5.7mph /  9.2km/h 8mph /  12.9km/h 99% 0.24in /  6.1mm 0 W/m2
17:14 54.7 °F /  12.6 °C 54.4 °F /  12.4 °C 29.58in /  1001.6hPa East 4.4mph /  7.1km/h 7mph /  11.3km/h 99% 0.24in /  6.1mm 0 W/m2
17:19 54.7 °F /  12.6 °C 54.4 °F /  12.4 °C 29.59in /  1001.9hPa NE 3.3mph /  5.3km/h 6mph /  9.7km/h 99% 0.24in /  6.1mm 0 W/m2
17:24 54.5 °F /  12.5 °C 54.2 °F /  12.3 °C 29.60in /  1002.3hPa NW 5.5mph /  8.9km/h 5mph /  8km/h 99% 0.23in /  5.84mm 0 W/m2
17:29 54.5 °F /  12.5 °C 54.2 °F /  12.3 °C 29.61in /  1002.6hPa WNW 5.8mph /  9.3km/h 7mph /  11.3km/h 99% 0.23in /  5.84mm 0 W/m2
17:34 54.4 °F /  12.4 °C 54.1 °F /  12.3 °C 29.61in /  1002.6hPa West 7mph /  11.3km/h 7mph /  11.3km/h 99% 0.22in /  5.59mm 0 W/m2
17:39 54.5 °F /  12.5 °C 54.2 °F /  12.3 °C 29.62in /  1002.9hPa West 5.1mph /  8.2km/h 8mph /  12.9km/h 99% 0.23in /  5.84mm 0 W/m2
17:44 54.6 °F /  12.6 °C 54.3 °F /  12.4 °C 29.62in /  1002.9hPa WSW 5.2mph /  8.4km/h 7mph /  11.3km/h 99% 0.24in /  6.1mm 0 W/m2
17:49 54.5 °F /  12.5 °C 54.2 °F /  12.3 °C 29.61in /  1002.6hPa SW 6.8mph /  10.9km/h 7mph /  11.3km/h 99% 0.25in /  6.35mm 0 W/m2
17:54 54.5 °F /  12.5 °C 54.2 °F /  12.3 °C 29.60in /  1002.3hPa SE 7.7mph /  12.4km/h 8mph /  12.9km/h 99% 0.24in /  6.1mm 0 W/m2
17:59 54.3 °F /  12.4 °C 54 °F /  12.2 °C 29.60in /  1002.3hPa East 7.4mph /  11.9km/h 10mph /  16.1km/h 99% 0.22in /  5.59mm 0 W/m2
18:04 54.3 °F /  12.4 °C 54 °F /  12.2 °C 29.60in /  1002.3hPa ESE 7.3mph /  11.7km/h 8mph /  12.9km/h 99% 0.19in /  4.83mm 0 W/m2
18:09 54.5 °F /  12.5 °C 54.2 °F /  12.3 °C 29.60in /  1002.3hPa ESE 5.2mph /  8.4km/h 8mph /  12.9km/h 99% 0.17in /  4.32mm 0 W/m2
18:14 54.5 °F /  12.5 °C 54.2 °F /  12.3 °C 29.60in /  1002.3hPa ESE 5.9mph /  9.5km/h 7mph /  11.3km/h 99% 0.15in /  3.81mm 0 W/m2
18:19 54.5 °F /  12.5 °C 54.2 °F /  12.3 °C 29.60in /  1002.3hPa East 4.4mph /  7.1km/h 7mph /  11.3km/h 99% 0.14in /  3.56mm 0 W/m2
18:24 54.3 °F /  12.4 °C 54 °F /  12.2 °C 29.60in /  1002.3hPa ESE 4.3mph /  6.9km/h 5mph /  8km/h 99% 0.13in /  3.3mm 0 W/m2
18:27 54.3 °F /  12.4 °C 54 °F /  12.2 °C 29.60in /  1002.3hPa ESE 2.8mph /  4.5km/h 6mph /  9.7km/h 99% 0.12in /  3.05mm 0 W/m2
18:34 54.3 °F /  12.4 °C 54 °F /  12.2 °C 29.60in /  1002.3hPa East 3.3mph /  5.3km/h 1.8mph /  2.9km/h 99% 0.11in /  2.79mm 0 W/m2
18:39 54.2 °F /  12.3 °C 54 °F /  12.2 °C 29.60in /  1002.3hPa ENE 1.7mph /  2.7km/h 5mph /  8km/h 99% 0.08in /  2.03mm 0 W/m2
18:44 54.1 °F /  12.3 °C 53.9 °F /  12.2 °C 29.60in /  1002.3hPa NE 1.6mph /  2.6km/h 2mph /  3.2km/h 99% 0.05in /  1.27mm 0 W/m2
18:49 54.1 °F /  12.3 °C 53.8 °F /  12.1 °C 29.60in /  1002.3hPa NNE 1.2mph /  1.9km/h 2mph /  3.2km/h 99% 0.02in /  0.51mm 0 W/m2
18:54 54 °F /  12.2 °C 53.7 °F /  12.1 °C 29.59in /  1001.9hPa NNE 2.1mph /  3.4km/h 2mph /  3.2km/h 99% 0.02in /  0.51mm 0 W/m2
18:59 54 °F /  12.2 °C 53.7 °F /  12.1 °C 29.59in /  1001.9hPa NE 2.8mph /  4.5km/h 2mph /  3.2km/h 99% 0.01in /  0.25mm 0 W/m2
19:04 53.9 °F /  12.2 °C 53.6 °F /  12 °C 29.59in /  1001.9hPa NE 2.1mph /  3.4km/h 4mph /  6.4km/h 99% 0.00in /  0mm 0 W/m2
19:09 53.8 °F /  12.1 °C 53.5 °F /  11.9 °C 29.60in /  1002.3hPa NNE 1.7mph /  2.7km/h 2mph /  3.2km/h 99% 0.00in /  0mm 0 W/m2
19:14 53.6 °F /  12 °C 53.3 °F /  11.8 °C 29.60in /  1002.3hPa North 1.9mph /  3.1km/h 2mph /  3.2km/h 99% 0.00in /  0mm 0 W/m2
19:19 53.4 °F /  11.9 °C 53.1 °F /  11.7 °C 29.60in /  1002.3hPa North 1.4mph /  2.3km/h 2mph /  3.2km/h 99% 0.00in /  0mm 0 W/m2
19:24 53.4 °F /  11.9 °C 53.1 °F /  11.7 °C 29.60in /  1002.3hPa North 1.6mph /  2.6km/h 2mph /  3.2km/h 99% 0.00in /  0mm 0 W/m2
19:29 53.4 °F /  11.9 °C 53.1 °F /  11.7 °C 29.61in /  1002.6hPa NNE 1.6mph /  2.6km/h 2mph /  3.2km/h 99% 0.00in /  0mm 0 W/m2
19:34 53.4 °F /  11.9 °C 53.1 °F /  11.7 °C 29.61in /  1002.6hPa NE 3.9mph /  6.3km/h 3.1mph /  5km/h 99% 0.00in /  0mm 0 W/m2
19:39 53.3 °F /  11.8 °C 53 °F /  11.7 °C 29.60in /  1002.3hPa East 4.4mph /  7.1km/h 5mph /  8km/h 99% 0.04in /  1.02mm 0 W/m2
19:44 53.2 °F /  11.8 °C 53 °F /  11.7 °C 29.60in /  1002.3hPa East 5mph /  8km/h 5mph /  8km/h 99% 0.04in /  1.02mm 0 W/m2
19:49 53.2 °F /  11.8 °C 53 °F /  11.7 °C 29.60in /  1002.3hPa ESE 5.3mph /  8.5km/h 6mph /  9.7km/h 99% 0.04in /  1.02mm 0 W/m2
19:54 53.1 °F /  11.7 °C 52.8 °F /  11.6 °C 29.60in /  1002.3hPa ESE 6.2mph /  10km/h 6mph /  9.7km/h 99% 0.04in /  1.02mm 0 W/m2
19:59 53.1 °F /  11.7 °C 52.8 °F /  11.6 °C 29.61in /  1002.6hPa ESE 5mph /  8km/h 7mph /  11.3km/h 99% 0.04in /  1.02mm 0 W/m2
20:04 53.1 °F /  11.7 °C 52.8 °F /  11.6 °C 29.60in /  1002.3hPa ESE 5.4mph /  8.7km/h 6mph /  9.7km/h 99% 0.04in /  1.02mm 0 W/m2
20:09 53.1 °F /  11.7 °C 52.8 °F /  11.6 °C 29.61in /  1002.6hPa ESE 4.5mph /  7.2km/h 6mph /  9.7km/h 99% 0.04in /  1.02mm 0 W/m2
20:14 53.1 °F /  11.7 °C 52.8 °F /  11.6 °C 29.61in /  1002.6hPa East 4mph /  6.4km/h 6mph /  9.7km/h 99% 0.04in /  1.02mm 0 W/m2
20:19 53.1 °F /  11.7 °C 52.8 °F /  11.6 °C 29.62in /  1002.9hPa ENE 2.5mph /  4km/h 5mph /  8km/h 99% 0.04in /  1.02mm 0 W/m2
20:24 53 °F /  11.7 °C 52.7 °F /  11.5 °C 29.62in /  1002.9hPa NE 3.1mph /  5km/h 3mph /  4.8km/h 99% 0.04in /  1.02mm 0 W/m2
20:29 53 °F /  11.7 °C 52.7 °F /  11.5 °C 29.62in /  1002.9hPa NNE 2.5mph /  4km/h 4mph /  6.4km/h 99% 0.04in /  1.02mm 0 W/m2
20:34 53.1 °F /  11.7 °C 52.8 °F /  11.6 °C 29.62in /  1002.9hPa NNE 1.6mph /  2.6km/h 2mph /  3.2km/h 99% 0.04in /  1.02mm 0 W/m2
20:39 53.1 °F /  11.7 °C 52.8 °F /  11.6 °C 29.62in /  1002.9hPa NNE 2.2mph /  3.5km/h 2mph /  3.2km/h 99% 0.00in /  0mm 0 W/m2
20:44 52.9 °F /  11.6 °C 52.6 °F /  11.4 °C 29.63in /  1003.3hPa NE 3.3mph /  5.3km/h 3.6mph /  5.8km/h 99% 0.00in /  0mm 0 W/m2
20:49 52.8 °F /  11.6 °C 52.5 °F /  11.4 °C 29.63in /  1003.3hPa NE 3.2mph /  5.1km/h 4mph /  6.4km/h 99% 0.00in /  0mm 0 W/m2
20:54 52.9 °F /  11.6 °C 52.6 °F /  11.4 °C 29.63in /  1003.3hPa NE 3.7mph /  6km/h 4mph /  6.4km/h 99% 0.00in /  0mm 0 W/m2
20:59 53 °F /  11.7 °C 52.7 °F /  11.5 °C 29.64in /  1003.6hPa ENE 4.1mph /  6.6km/h 5mph /  8km/h 99% 0.00in /  0mm 0 W/m2
21:04 53 °F /  11.7 °C 52.7 °F /  11.5 °C 29.64in /  1003.6hPa ENE 4mph /  6.4km/h 5mph /  8km/h 99% 0.00in /  0mm 0 W/m2
21:09 52.9 °F /  11.6 °C 52.6 °F /  11.4 °C 29.65in /  1003.9hPa NNE 3.2mph /  5.1km/h 5mph /  8km/h 99% 0.00in /  0mm 0 W/m2
21:14 52.9 °F /  11.6 °C 52.6 °F /  11.4 °C 29.65in /  1003.9hPa NNE 2.7mph /  4.3km/h 4mph /  6.4km/h 99% 0.00in /  0mm 0 W/m2
21:19 53 °F /  11.7 °C 52.7 °F /  11.5 °C 29.65in /  1003.9hPa NE 2.3mph /  3.7km/h 3mph /  4.8km/h 99% 0.00in /  0mm 0 W/m2
21:24 53.1 °F /  11.7 °C 52.8 °F /  11.6 °C 29.65in /  1003.9hPa North 5.4mph /  8.7km/h 6mph /  9.7km/h 99% 0.00in /  0mm 0 W/m2
21:29 53.1 °F /  11.7 °C 52.8 °F /  11.6 °C 29.66in /  1004.3hPa NW 3.3mph /  5.3km/h 6mph /  9.7km/h 99% 0.00in /  0mm 0 W/m2
21:34 53 °F /  11.7 °C 52.7 °F /  11.5 °C 29.66in /  1004.3hPa NW 2.9mph /  4.7km/h 4mph /  6.4km/h 99% 0.00in /  0mm 0 W/m2
21:39 53 °F /  11.7 °C 52.7 °F /  11.5 °C 29.66in /  1004.3hPa NE 3.3mph /  5.3km/h 3mph /  4.8km/h 99% 0.00in /  0mm 0 W/m2
21:44 52.9 °F /  11.6 °C 52.6 °F /  11.4 °C 29.66in /  1004.3hPa ENE 3.6mph /  5.8km/h 4mph /  6.4km/h 99% 0.00in /  0mm 0 W/m2
21:49 52.9 °F /  11.6 °C 52.6 °F /  11.4 °C 29.66in /  1004.3hPa NE 3.7mph /  6km/h 5mph /  8km/h 99% 0.00in /  0mm 0 W/m2
21:54 52.9 °F /  11.6 °C 52.6 °F /  11.4 °C 29.65in /  1003.9hPa NE 5.6mph /  9km/h 6mph /  9.7km/h 99% 0.00in /  0mm 0 W/m2
21:59 53.1 °F /  11.7 °C 52.8 °F /  11.6 °C 29.65in /  1003.9hPa NE 6.6mph /  10.6km/h 7mph /  11.3km/h 99% 0.00in /  0mm 0 W/m2
22:04 53.1 °F /  11.7 °C 52.8 °F /  11.6 °C 29.65in /  1003.9hPa NE 3.8mph /  6.1km/h 7mph /  11.3km/h 99% 0.00in /  0mm 0 W/m2
22:09 53.1 °F /  11.7 °C 52.8 °F /  11.6 °C 29.66in /  1004.3hPa NE 2.4mph /  3.9km/h 5mph /  8km/h 99% 0.00in /  0mm 0 W/m2
22:14 53 °F /  11.7 °C 52.7 °F /  11.5 °C 29.67in /  1004.6hPa North 3mph /  4.8km/h 2.2mph /  3.5km/h 99% 0.00in /  0mm 0 W/m2
22:19 52.9 °F /  11.6 °C 52.6 °F /  11.4 °C 29.67in /  1004.6hPa NNW 3.4mph /  5.5km/h 3mph /  4.8km/h 99% 0.00in /  0mm 0 W/m2
22:24 52.9 °F /  11.6 °C 52.6 °F /  11.4 °C 29.67in /  1004.6hPa North 3mph /  4.8km/h 4mph /  6.4km/h 99% 0.00in /  0mm 0 W/m2
22:29 52.9 °F /  11.6 °C 52.6 °F /  11.4 °C 29.67in /  1004.6hPa NNW 3.5mph /  5.6km/h 5mph /  8km/h 99% 0.00in /  0mm 0 W/m2
22:34 53 °F /  11.7 °C 52.7 °F /  11.5 °C 29.67in /  1004.6hPa NW 2.6mph /  4.2km/h 4mph /  6.4km/h 99% 0.00in /  0mm 0 W/m2
22:39 53.2 °F /  11.8 °C 52.9 °F /  11.6 °C 29.67in /  1004.6hPa North 3.2mph /  5.1km/h 3mph /  4.8km/h 99% 0.00in /  0mm 0 W/m2
22:44 53.3 °F /  11.8 °C 53.1 °F /  11.7 °C 29.68in /  1005hPa NE 3.4mph /  5.5km/h 4mph /  6.4km/h 99% 0.00in /  0mm 0 W/m2
22:49 53.3 °F /  11.8 °C 53 °F /  11.7 °C 29.68in /  1005hPa NE 3.4mph /  5.5km/h 4mph /  6.4km/h 99% 0.00in /  0mm 0 W/m2
22:54 53.2 °F /  11.8 °C 53 °F /  11.7 °C 29.68in /  1005hPa NNE 3.3mph /  5.3km/h 3mph /  4.8km/h 99% 0.00in /  0mm 0 W/m2
22:59 53.2 °F /  11.8 °C 52.9 °F /  11.6 °C 29.68in /  1005hPa NNE 2.7mph /  4.3km/h 4mph /  6.4km/h 99% 0.00in /  0mm 0 W/m2
23:04 53.1 °F /  11.7 °C 52.8 °F /  11.6 °C 29.68in /  1005hPa NNE 2.2mph /  3.5km/h 3mph /  4.8km/h 99% 0.00in /  0mm 0 W/m2
23:09 53.2 °F /  11.8 °C 53 °F /  11.7 °C 29.68in /  1005hPa NNE 1.9mph /  3.1km/h 3mph /  4.8km/h 99% 0.00in /  0mm 0 W/m2
23:14 53.2 °F /  11.8 °C 53 °F /  11.7 °C 29.69in /  1005.3hPa NE 1.6mph /  2.6km/h 2mph /  3.2km/h 99% 0.00in /  0mm 0 W/m2
23:19 53.1 °F /  11.7 °C 52.8 °F /  11.6 °C 29.69in /  1005.3hPa NE 2mph /  3.2km/h 2mph /  3.2km/h 99% 0.00in /  0mm 0 W/m2
23:24 53.1 °F /  11.7 °C 52.8 °F /  11.6 °C 29.70in /  1005.6hPa NE 3mph /  4.8km/h 3mph /  4.8km/h 99% 0.00in /  0mm 0 W/m2
23:29 53.1 °F /  11.7 °C 52.8 °F /  11.6 °C 29.70in /  1005.6hPa NE 3mph /  4.8km/h 3.6mph /  5.8km/h 99% 0.00in /  0mm 0 W/m2
23:34 53 °F /  11.7 °C 52.7 °F /  11.5 °C 29.70in /  1005.6hPa NNE 2.6mph /  4.2km/h 4mph /  6.4km/h 99% 0.00in /  0mm 0 W/m2
23:39 52.9 °F /  11.6 °C 52.6 °F /  11.4 °C 29.70in /  1005.6hPa North 3.4mph /  5.5km/h 3mph /  4.8km/h 99% 0.00in /  0mm 0 W/m2
23:44 52.9 °F /  11.6 °C 52.6 °F /  11.4 °C 29.70in /  1005.6hPa North 3.6mph /  5.8km/h 4mph /  6.4km/h 99% 0.00in /  0mm 0 W/m2
23:49 52.7 °F /  11.5 °C 52.4 °F /  11.3 °C 29.70in /  1005.6hPa NW 1.7mph /  2.7km/h 5mph /  8km/h 99% 0.00in /  0mm 0 W/m2
23:54 52.7 °F /  11.5 °C 52.4 °F /  11.3 °C 29.70in /  1005.6hPa NNW 2.9mph /  4.7km/h 4mph /  6.4km/h 99% 0.00in /  0mm 0 W/m2
23:59 52.7 °F /  11.5 °C 52.4 °F /  11.3 °C 29.70in /  1005.6hPa NE 2.6mph /  4.2km/h 4mph /  6.4km/h 99% 0.00in /  0mm 0 W/m2
Knjazevac, Serbia
Compliments of Weather Underground - 4 mb